Time;durP1;ratioP1;P1;durP2;ratioP2;P2;SDS_P1;SDS_P2;PMS_P1;PMS_P2;Temp;Humidity;BMP_temperature;BMP_pressure;BME280_temperature;BME280_humidity;BME280_pressure;Samples;Min_cycle;Max_cycle;Signal;HPM_P1;HPM_P2
2022/11/24 00:01:19;;;;;;;23.60;9.20;;;7.60;99.90;;;;;;5028448;28;20044;-78
2022/11/24 00:03:52;;;;;;;21.13;10.15;;;7.50;99.90;;;;;;5055721;28;20067;-78
2022/11/24 00:06:18;;;;;;;21.85;9.70;;;7.50;99.90;;;;;;5044608;28;20095;-78
2022/11/24 00:08:45;;;;;;;24.48;10.05;;;7.50;99.90;;;;;;5038945;28;20036;-78
2022/11/24 00:11:14;;;;;;;23.05;9.63;;;7.50;99.90;;;;;;5031870;28;20061;-78
2022/11/24 00:13:39;;;;;;;20.52;8.68;;;7.50;99.90;;;;;;5054404;28;20051;-78
2022/11/24 00:16:06;;;;;;;25.63;9.55;;;7.50;99.90;;;;;;5049228;28;20037;-78
2022/11/24 00:18:32;;;;;;;24.35;9.18;;;7.50;99.90;;;;;;5035114;28;20044;-78
2022/11/24 00:20:58;;;;;;;20.92;9.23;;;7.50;99.90;;;;;;5024810;28;20044;-77
2022/11/24 00:23:23;;;;;;;24.38;9.60;;;7.50;99.90;;;;;;5031294;28;20043;-77
2022/11/24 00:25:49;;;;;;;26.50;9.70;;;7.50;99.90;;;;;;5032116;28;20045;-77
2022/11/24 00:28:14;;;;;;;22.17;9.55;;;7.50;99.90;;;;;;5047785;28;20076;-78
2022/11/24 00:30:40;;;;;;;26.55;9.40;;;7.50;99.90;;;;;;5015864;28;20048;-76
2022/11/24 00:33:06;;;;;;;23.58;9.25;;;7.50;99.90;;;;;;5033393;28;20045;-76
2022/11/24 00:35:31;;;;;;;28.02;8.90;;;7.50;99.90;;;;;;5055110;28;20098;-77
2022/11/24 00:37:57;;;;;;;20.88;9.10;;;7.50;99.90;;;;;;5031978;28;20064;-77
2022/11/24 00:40:23;;;;;;;25.48;9.73;;;7.40;99.90;;;;;;5050961;28;20041;-77
2022/11/24 00:42:48;;;;;;;21.77;9.02;;;7.40;99.90;;;;;;5015469;28;20497;-77
2022/11/24 00:45:17;;;;;;;20.95;8.55;;;7.40;99.90;;;;;;5031224;28;20300;-77
2022/11/24 00:47:42;;;;;;;30.73;9.32;;;7.40;99.90;;;;;;5058156;28;20217;-78
2022/11/24 00:50:08;;;;;;;30.65;10.65;;;7.40;99.90;;;;;;5043562;28;20037;-77
2022/11/24 00:52:34;;;;;;;31.08;9.02;;;7.40;99.90;;;;;;5036940;28;20041;-79
2022/11/24 00:55:00;;;;;;;35.25;9.80;;;7.40;99.90;;;;;;5046930;28;20041;-78
2022/11/24 00:57:25;;;;;;;22.77;9.73;;;7.40;99.90;;;;;;5016199;28;20036;-76
2022/11/24 00:59:51;;;;;;;31.88;10.00;;;7.40;99.90;;;;;;5036876;28;20040;-77
2022/11/24 01:02:17;;;;;;;25.35;9.13;;;7.40;99.90;;;;;;5018056;28;20033;-77
2022/11/24 01:04:42;;;;;;;26.90;9.30;;;7.40;99.90;;;;;;5034713;28;20076;-76
2022/11/24 01:07:08;;;;;;;27.98;9.35;;;7.30;99.90;;;;;;5033316;28;20036;-78
2022/11/24 01:09:34;;;;;;;26.58;9.15;;;7.40;99.90;;;;;;5033430;28;20057;-78
2022/11/24 01:12:02;;;;;;;24.58;8.20;;;7.40;99.90;;;;;;5045899;28;20040;-77
2022/11/24 01:14:29;;;;;;;25.77;8.20;;;7.50;99.90;;;;;;5015482;28;20123;-76
2022/11/24 01:16:56;;;;;;;25.70;8.30;;;7.50;99.90;;;;;;5032166;28;20451;-78
2022/11/24 01:19:25;;;;;;;31.45;8.15;;;7.50;99.90;;;;;;5019240;28;20033;-76
2022/11/24 01:21:51;;;;;;;25.58;8.27;;;7.60;99.90;;;;;;5049421;28;20043;-78
2022/11/24 01:24:17;;;;;;;29.45;7.95;;;7.60;99.90;;;;;;5022028;28;20530;-77
2022/11/24 01:26:43;;;;;;;23.50;7.65;;;7.70;99.90;;;;;;5043795;28;20680;-78
2022/11/24 01:29:10;;;;;;;24.40;6.95;;;7.70;99.90;;;;;;5008538;28;20075;-77
2022/11/24 01:31:36;;;;;;;23.83;6.90;;;7.70;99.90;;;;;;5048533;28;20128;-77
2022/11/24 01:34:02;;;;;;;25.77;7.97;;;7.70;99.90;;;;;;5032333;28;20133;-78
2022/11/24 01:36:27;;;;;;;23.17;7.10;;;7.80;99.90;;;;;;5046804;28;20040;-78
2022/11/24 01:38:53;;;;;;;29.27;7.70;;;7.80;99.90;;;;;;5032036;28;20563;-75
2022/11/24 01:41:26;;;;;;;25.77;7.05;;;7.80;99.90;;;;;;5030323;28;20416;-77
2022/11/24 01:43:54;;;;;;;22.77;6.70;;;7.80;99.90;;;;;;5040594;28;20413;-78
2022/11/24 01:46:34;;;;;;;24.77;6.85;;;7.80;99.90;;;;;;5046074;28;20496;-76
2022/11/24 01:49:44;;;;;;;24.48;6.80;;;7.80;99.90;;;;;;5046475;28;20041;-78
2022/11/24 01:52:32;;;;;;;23.23;6.43;;;7.80;99.90;;;;;;5053091;28;20516;-79
2022/11/24 01:55:03;;;;;;;21.23;5.85;;;7.80;99.90;;;;;;5022009;28;20041;-78
2022/11/24 01:57:35;;;;;;;21.83;6.50;;;7.80;99.90;;;;;;5042302;28;20097;-79
2022/11/24 02:00:09;;;;;;;22.75;6.25;;;7.80;99.90;;;;;;5032254;28;20044;-78
2022/11/24 02:02:38;;;;;;;25.58;6.50;;;7.80;99.90;;;;;;5023152;28;20033;-78
2022/11/24 02:05:39;;;;;;;23.65;7.28;;;7.80;99.90;;;;;;5045476;28;20049;-78
2022/11/24 02:08:16;;;;;;;20.88;5.38;;;7.80;99.90;;;;;;5045823;28;20131;-78
2022/11/24 02:10:44;;;;;;;26.75;7.28;;;7.80;99.90;;;;;;5044850;28;20053;-78
2022/11/24 02:13:10;;;;;;;29.98;6.63;;;7.80;99.90;;;;;;5047048;28;20048;-78
2022/11/24 02:15:35;;;;;;;30.27;7.15;;;7.80;99.90;;;;;;5017514;28;20041;-78
2022/11/24 02:18:01;;;;;;;27.83;6.03;;;7.80;99.90;;;;;;5012135;28;20041;-78
2022/11/24 02:20:27;;;;;;;26.95;6.32;;;7.80;99.90;;;;;;5047213;28;20624;-78
2022/11/24 02:22:55;;;;;;;18.15;5.30;;;7.70;99.90;;;;;;5030562;28;20029;-78
2022/11/24 02:25:41;;;;;;;22.58;5.45;;;7.80;99.90;;;;;;5034621;28;20048;-79
2022/11/24 02:28:11;;;;;;;26.40;7.60;;;7.70;99.90;;;;;;5047677;28;20132;-77
2022/11/24 02:30:37;;;;;;;26.70;6.50;;;7.70;99.90;;;;;;5044345;28;20099;-77
2022/11/24 02:33:03;;;;;;;27.27;5.93;;;7.70;99.90;;;;;;5046814;28;20036;-78
2022/11/24 02:35:30;;;;;;;25.30;6.68;;;7.70;99.90;;;;;;5034869;28;20041;-76
2022/11/24 02:37:55;;;;;;;19.20;5.00;;;7.70;99.90;;;;;;5049648;28;20084;-78
2022/11/24 02:40:24;;;;;;;31.95;6.55;;;7.80;99.90;;;;;;5030920;28;20069;-77
2022/11/24 02:42:55;;;;;;;29.88;5.75;;;7.70;99.90;;;;;;5048080;28;20040;-76
2022/11/24 02:45:22;;;;;;;18.60;4.25;;;7.70;99.90;;;;;;5047019;28;20052;-77
2022/11/24 02:47:47;;;;;;;19.50;5.25;;;7.70;99.90;;;;;;5046679;28;20087;-78
2022/11/24 02:50:13;;;;;;;23.42;4.72;;;7.70;99.90;;;;;;5046854;28;20071;-78
2022/11/24 02:52:39;;;;;;;20.98;4.85;;;7.70;99.90;;;;;;5044028;28;20418;-78
2022/11/24 02:55:05;;;;;;;22.17;5.20;;;7.70;99.90;;;;;;5042831;28;20037;-77
2022/11/24 02:57:30;;;;;;;22.67;4.43;;;7.70;99.90;;;;;;5019124;28;20040;-78
2022/11/24 02:59:56;;;;;;;21.50;4.93;;;7.70;99.90;;;;;;5028113;28;20409;-78
2022/11/24 03:02:22;;;;;;;27.15;5.13;;;7.70;99.90;;;;;;5029970;28;20064;-77
2022/11/24 03:04:47;;;;;;;24.63;5.68;;;7.70;99.90;;;;;;5046965;28;20036;-78
2022/11/24 03:07:13;;;;;;;16.15;4.38;;;7.70;99.90;;;;;;5034035;28;20454;-77
2022/11/24 03:09:42;;;;;;;22.70;5.05;;;7.70;99.90;;;;;;5046503;28;20055;-78
2022/11/24 03:12:08;;;;;;;24.40;4.90;;;7.60;99.90;;;;;;5030770;28;20049;-78
2022/11/24 03:14:33;;;;;;;21.00;4.80;;;7.60;99.90;;;;;;5031659;28;20045;-78
2022/11/24 03:16:59;;;;;;;23.67;4.63;;;7.60;99.90;;;;;;5040466;28;20075;-78
2022/11/24 03:19:24;;;;;;;19.08;5.20;;;7.60;99.90;;;;;;5009883;28;20095;-76
2022/11/24 03:21:50;;;;;;;25.58;5.28;;;7.60;99.90;;;;;;5027894;28;20037;-78
2022/11/24 03:24:16;;;;;;;21.48;5.03;;;7.60;99.90;;;;;;5045911;28;20041;-78
2022/11/24 03:26:41;;;;;;;24.35;4.70;;;7.60;99.90;;;;;;5029955;28;20039;-78
2022/11/24 03:29:07;;;;;;;22.40;4.85;;;7.60;99.90;;;;;;5049131;28;20052;-78
2022/11/24 03:31:33;;;;;;;13.73;4.60;;;7.60;99.90;;;;;;5030720;28;20039;-78
2022/11/24 03:34:02;;;;;;;23.33;5.47;;;7.60;99.90;;;;;;5006139;28;20098;-78
2022/11/24 03:36:27;;;;;;;20.95;4.22;;;7.60;99.90;;;;;;5011634;28;20032;-78
2022/11/24 03:38:53;;;;;;;24.13;5.30;;;7.60;99.90;;;;;;5008994;28;20512;-77
2022/11/24 03:41:19;;;;;;;22.75;5.45;;;7.60;99.90;;;;;;5046105;28;20033;-78
2022/11/24 03:43:44;;;;;;;22.33;5.05;;;7.60;99.90;;;;;;5008586;28;20032;-78
2022/11/24 03:46:11;;;;;;;23.67;4.82;;;7.60;99.90;;;;;;5044576;28;20041;-78
2022/11/24 03:48:37;;;;;;;22.08;4.70;;;7.60;99.90;;;;;;5040645;28;20142;-78
2022/11/24 03:51:03;;;;;;;20.55;4.28;;;7.60;99.90;;;;;;5039548;28;20123;-79
2022/11/24 03:53:30;;;;;;;17.33;4.20;;;7.60;99.90;;;;;;5047456;28;20052;-76
2022/11/24 03:55:56;;;;;;;24.65;4.70;;;7.60;99.90;;;;;;5049549;28;20045;-78
2022/11/24 03:58:22;;;;;;;25.08;4.72;;;7.60;99.90;;;;;;5056570;28;20087;-78
2022/11/24 04:00:49;;;;;;;26.70;4.78;;;7.60;99.90;;;;;;5053309;28;20501;-78
2022/11/24 04:03:15;;;;;;;19.95;3.92;;;7.70;99.90;;;;;;5049587;28;20449;-77
2022/11/24 04:05:41;;;;;;;19.48;4.78;;;7.70;99.90;;;;;;5048879;28;20131;-78
2022/11/24 04:08:07;;;;;;;23.05;4.80;;;7.60;99.90;;;;;;5035299;28;20036;-77
2022/11/24 04:10:35;;;;;;;25.08;5.03;;;7.60;99.90;;;;;;5034513;28;20040;-78
2022/11/24 04:13:02;;;;;;;26.92;5.07;;;7.70;99.90;;;;;;5033123;28;20501;-78
2022/11/24 04:15:28;;;;;;;24.42;4.22;;;7.60;99.90;;;;;;5046745;28;20530;-78
2022/11/24 04:17:55;;;;;;;20.05;4.38;;;7.70;99.90;;;;;;5047690;28;20389;-78
2022/11/24 04:20:24;;;;;;;21.55;4.50;;;7.70;99.90;;;;;;5050207;28;20120;-78
2022/11/24 04:22:50;;;;;;;21.30;4.40;;;7.70;99.90;;;;;;5051192;28;20608;-76
2022/11/24 04:25:19;;;;;;;19.58;4.65;;;7.70;99.90;;;;;;5033597;28;20048;-78
2022/11/24 04:27:49;;;;;;;19.10;4.53;;;7.70;99.90;;;;;;5054091;28;20064;-78
2022/11/24 04:30:15;;;;;;;24.42;4.35;;;7.70;99.90;;;;;;5053355;28;20462;-77
2022/11/24 04:32:40;;;;;;;17.50;4.38;;;7.70;99.90;;;;;;5038777;28;20111;-76
2022/11/24 04:35:06;;;;;;;24.55;4.60;;;7.70;99.90;;;;;;5050615;28;20160;-78
2022/11/24 04:37:33;;;;;;;28.90;4.93;;;7.60;99.90;;;;;;5019691;28;20041;-78
2022/11/24 04:39:58;;;;;;;17.20;4.18;;;7.60;99.90;;;;;;5034765;28;20032;-78
2022/11/24 04:42:24;;;;;;;22.50;5.05;;;7.60;99.90;;;;;;5037436;28;20052;-78
2022/11/24 04:44:50;;;;;;;19.52;4.97;;;7.60;99.90;;;;;;5040680;28;20059;-78
2022/11/24 04:47:19;;;;;;;19.60;4.32;;;7.50;99.90;;;;;;5050045;28;20095;-78
2022/11/24 04:49:49;;;;;;;21.65;5.43;;;7.60;99.90;;;;;;5054095;28;20077;-77
2022/11/24 04:52:18;;;;;;;19.58;5.78;;;7.50;99.90;;;;;;5050563;28;20033;-78
2022/11/24 04:54:45;;;;;;;23.02;5.32;;;7.50;99.90;;;;;;5053255;28;20037;-78
2022/11/24 04:57:14;;;;;;;25.15;6.40;;;7.50;99.90;;;;;;5050949;28;20117;-79
2022/11/24 04:59:40;;;;;;;17.45;4.95;;;7.40;99.90;;;;;;5054643;28;20045;-78
2022/11/24 05:02:07;;;;;;;19.38;4.30;;;7.40;99.90;;;;;;5049247;28;20029;-77
2022/11/24 05:04:32;;;;;;;17.13;4.35;;;7.30;99.90;;;;;;5002971;28;20033;-77
2022/11/24 05:06:58;;;;;;;25.00;4.45;;;7.30;99.90;;;;;;5019827;28;20067;-76
2022/11/24 05:09:24;;;;;;;23.38;4.93;;;7.30;99.90;;;;;;5052530;28;20036;-76
2022/11/24 05:11:49;;;;;;;22.92;5.00;;;7.30;99.90;;;;;;5035421;28;20047;-76
2022/11/24 05:14:15;;;;;;;15.70;4.03;;;7.30;99.90;;;;;;5034632;28;20033;-76
2022/11/24 05:16:41;;;;;;;25.95;4.32;;;7.30;99.90;;;;;;5019412;28;20048;-74
2022/11/24 05:19:07;;;;;;;24.75;4.90;;;7.20;99.90;;;;;;5034014;28;20038;-77
2022/11/24 05:21:33;;;;;;;16.13;5.03;;;7.20;99.90;;;;;;5034083;28;20033;-76
2022/11/24 05:23:58;;;;;;;23.48;3.50;;;7.20;99.90;;;;;;5018018;28;20036;-76
2022/11/24 05:26:26;;;;;;;21.58;4.13;;;7.20;99.90;;;;;;5035765;28;20402;-77
2022/11/24 05:28:51;;;;;;;23.00;3.88;;;7.10;99.90;;;;;;5036910;28;20059;-76
2022/11/24 05:31:20;;;;;;;21.88;4.25;;;7.10;99.90;;;;;;5022014;28;20123;-77
2022/11/24 05:33:46;;;;;;;15.07;3.67;;;7.10;99.90;;;;;;5034176;28;20041;-76
2022/11/24 05:36:51;;;;;;;19.83;4.00;;;7.10;99.90;;;;;;5048153;28;20056;-75
2022/11/24 05:38:57;;;;;;;17.05;3.22;;;7.00;99.90;;;;;;5027335;28;20048;-76
2022/11/24 05:41:23;;;;;;;19.98;4.22;;;7.00;99.90;;;;;;5009258;28;20059;-78
2022/11/24 05:43:49;;;;;;;19.92;3.83;;;7.00;99.90;;;;;;5046544;28;20045;-77
2022/11/24 05:46:14;;;;;;;22.67;4.75;;;7.00;99.90;;;;;;5017690;28;20425;-76
2022/11/24 05:48:43;;;;;;;18.52;4.80;;;7.00;99.90;;;;;;5013017;28;20045;-76
2022/11/24 05:51:08;;;;;;;20.65;4.43;;;6.90;99.90;;;;;;5019563;28;20123;-76
2022/11/24 05:53:34;;;;;;;19.58;3.88;;;6.90;99.90;;;;;;5033885;28;20468;-77
2022/11/24 05:56:03;;;;;;;18.55;4.25;;;6.90;99.90;;;;;;5050606;28;20539;-76
2022/11/24 05:58:29;;;;;;;20.08;4.65;;;6.90;99.90;;;;;;5014625;28;20041;-77
2022/11/24 06:00:55;;;;;;;22.55;4.18;;;6.90;99.90;;;;;;5051030;28;20194;-74
2022/11/24 06:03:23;;;;;;;15.70;4.22;;;6.80;99.90;;;;;;5034917;28;20033;-78
2022/11/24 06:05:49;;;;;;;18.85;4.07;;;6.80;99.90;;;;;;5052231;28;20048;-77
2022/11/24 06:08:14;;;;;;;20.45;5.25;;;6.80;99.90;;;;;;5017304;28;20398;-76
2022/11/24 06:10:41;;;;;;;20.90;4.35;;;6.80;99.90;;;;;;5053611;28;20044;-76
2022/11/24 06:13:07;;;;;;;19.73;4.18;;;6.80;99.90;;;;;;5036647;28;20041;-76
2022/11/24 06:15:34;;;;;;;24.77;5.72;;;6.80;99.90;;;;;;5020984;28;20095;-76
2022/11/24 06:17:59;;;;;;;24.70;4.93;;;6.90;99.90;;;;;;5031876;28;20037;-76
2022/11/24 06:20:25;;;;;;;16.52;4.30;;;6.90;99.90;;;;;;5051039;28;20055;-76
2022/11/24 06:22:51;;;;;;;20.85;5.20;;;6.90;99.90;;;;;;5021428;28;20589;-76
2022/11/24 06:25:17;;;;;;;18.45;4.18;;;6.90;99.90;;;;;;5018196;28;20715;-76
2022/11/24 06:27:45;;;;;;;16.58;4.60;;;7.00;99.90;;;;;;5037423;28;20155;-77
2022/11/24 06:30:12;;;;;;;15.25;3.97;;;7.00;99.90;;;;;;5018010;28;20509;-76
2022/11/24 06:32:38;;;;;;;14.82;5.35;;;7.00;99.90;;;;;;5053289;28;20096;-76
2022/11/24 06:35:05;;;;;;;15.90;3.90;;;7.00;99.90;;;;;;5036736;28;20065;-75
2022/11/24 06:37:35;;;;;;;30.67;4.75;;;7.00;99.90;;;;;;5031710;28;20036;-77
2022/11/24 06:40:01;;;;;;;22.17;5.07;;;7.10;99.90;;;;;;5049353;28;20029;-77
2022/11/24 06:42:27;;;;;;;17.40;3.95;;;7.10;99.90;;;;;;5000933;28;21269;-77
2022/11/24 06:44:52;;;;;;;16.35;3.97;;;7.10;99.90;;;;;;5021116;28;20122;-76
2022/11/24 06:47:21;;;;;;;19.92;4.15;;;7.10;99.90;;;;;;5030271;28;20048;-75
2022/11/24 06:49:46;;;;;;;12.15;3.90;;;7.10;99.90;;;;;;5013226;28;20519;-76
2022/11/24 06:52:12;;;;;;;13.65;3.38;;;7.10;99.90;;;;;;5033555;28;20223;-76
2022/11/24 06:54:38;;;;;;;18.17;3.72;;;7.20;99.90;;;;;;5027410;28;20065;-78
2022/11/24 06:57:03;;;;;;;20.13;4.53;;;7.10;99.90;;;;;;5033431;28;20517;-76
2022/11/24 06:59:29;;;;;;;15.73;3.88;;;7.10;99.90;;;;;;5051314;28;20047;-75
2022/11/24 07:01:55;;;;;;;13.70;4.60;;;7.20;99.90;;;;;;5056492;28;20155;-76
2022/11/24 07:04:20;;;;;;;17.83;3.88;;;7.10;99.90;;;;;;5032902;28;20033;-79
2022/11/24 07:06:46;;;;;;;15.73;3.38;;;7.10;99.90;;;;;;5036192;28;20041;-77
2022/11/24 07:09:13;;;;;;;11.80;3.88;;;7.10;99.90;;;;;;5018374;28;20044;-76
2022/11/24 07:11:41;;;;;;;15.63;3.70;;;7.10;99.90;;;;;;5046940;28;20585;-77
2022/11/24 07:14:08;;;;;;;14.48;3.08;;;7.00;99.90;;;;;;5026991;28;20037;-76
2022/11/24 07:16:34;;;;;;;16.92;3.30;;;7.10;99.90;;;;;;5025168;28;20037;-78
2022/11/24 07:19:03;;;;;;;11.23;3.08;;;7.00;99.90;;;;;;5046574;28;20028;-76
2022/11/24 07:21:29;;;;;;;15.63;3.92;;;7.00;99.90;;;;;;5013457;28;20067;-76
2022/11/24 07:23:56;;;;;;;12.70;2.95;;;7.10;99.90;;;;;;5027124;28;20098;-76
2022/11/24 07:26:23;;;;;;;15.07;3.78;;;7.00;99.90;;;;;;5028403;28;20037;-79
2022/11/24 07:28:49;;;;;;;15.43;3.55;;;7.10;99.90;;;;;;5028186;28;20109;-76
2022/11/24 07:31:17;;;;;;;14.70;4.18;;;7.30;99.90;;;;;;5045720;28;20429;-77
2022/11/24 07:33:48;;;;;;;14.35;3.47;;;7.10;99.90;;;;;;5044811;28;20102;-76
2022/11/24 07:36:14;;;;;;;13.98;4.05;;;7.10;99.90;;;;;;5045671;28;20505;-79
2022/11/24 07:38:39;;;;;;;13.13;3.40;;;7.10;99.90;;;;;;5027159;28;20069;-77
2022/11/24 07:41:08;;;;;;;13.55;3.20;;;7.10;99.90;;;;;;5026362;28;20037;-77
2022/11/24 07:43:36;;;;;;;14.30;3.72;;;7.10;99.90;;;;;;5027680;28;20599;-76
2022/11/24 07:46:05;;;;;;;15.55;4.28;;;7.10;99.90;;;;;;5039867;28;20045;-77
2022/11/24 07:48:31;;;;;;;16.83;4.03;;;7.20;99.90;;;;;;5032546;28;20555;-76
2022/11/24 07:51:01;;;;;;;16.65;5.28;;;7.20;99.90;;;;;;5020567;28;20144;-76
2022/11/24 07:53:27;;;;;;;17.10;4.10;;;7.20;99.90;;;;;;5014187;28;20441;-76
2022/11/24 07:55:59;;;;;;;12.38;5.65;;;7.20;99.90;;;;;;5037603;28;20041;-76
2022/11/24 07:58:26;;;;;;;15.55;5.05;;;7.20;99.90;;;;;;5041178;28;20111;-77
2022/11/24 08:00:52;;;;;;;14.48;4.30;;;7.20;99.90;;;;;;5018814;28;20029;-77
2022/11/24 08:03:18;;;;;;;21.88;5.15;;;7.30;99.90;;;;;;5024245;28;20041;-77
2022/11/24 08:05:51;;;;;;;20.20;5.30;;;7.30;99.90;;;;;;5021097;28;20066;-79
2022/11/24 08:08:17;;;;;;;25.90;5.32;;;7.30;99.90;;;;;;5023336;28;20788;-77
2022/11/24 08:10:45;;;;;;;15.05;5.38;;;7.30;99.90;;;;;;5036193;28;20099;-78
2022/11/24 08:13:14;;;;;;;15.75;5.45;;;7.30;99.90;;;;;;5009884;28;20052;-77
2022/11/24 08:15:40;;;;;;;11.75;5.13;;;7.30;99.90;;;;;;5028151;28;20586;-77
2022/11/24 08:18:06;;;;;;;15.27;5.57;;;7.30;99.90;;;;;;5012761;28;20076;-77
2022/11/24 08:20:31;;;;;;;19.40;5.63;;;7.40;99.90;;;;;;5024300;28;20493;-77
2022/11/24 08:22:58;;;;;;;17.05;5.63;;;7.40;99.90;;;;;;5024424;28;20037;-77
2022/11/24 08:25:31;;;;;;;13.60;6.15;;;7.40;99.90;;;;;;5040031;28;20037;-76
2022/11/24 08:28:02;;;;;;;19.60;6.18;;;7.40;99.90;;;;;;5008172;28;20039;-77
2022/11/24 08:30:28;;;;;;;23.33;6.55;;;7.50;99.90;;;;;;5039084;28;20055;-77
2022/11/24 08:32:54;;;;;;;13.85;5.93;;;7.50;99.90;;;;;;5037506;28;20040;-78
2022/11/24 08:35:20;;;;;;;13.90;5.50;;;7.60;99.90;;;;;;5036105;28;20051;-77
2022/11/24 08:37:46;;;;;;;20.00;6.82;;;7.70;99.90;;;;;;5049323;28;20045;-77
2022/11/24 08:40:15;;;;;;;14.35;6.40;;;7.70;99.90;;;;;;5035424;28;20036;-78
2022/11/24 08:42:44;;;;;;;14.50;5.90;;;7.70;99.90;;;;;;5029228;28;20040;-79
2022/11/24 08:45:10;;;;;;;16.38;5.47;;;7.70;99.90;;;;;;5046287;28;20041;-76
2022/11/24 08:47:36;;;;;;;15.10;5.60;;;7.70;99.90;;;;;;5042370;28;20044;-78
2022/11/24 08:50:02;;;;;;;18.20;6.38;;;7.70;99.90;;;;;;5012024;28;20086;-78
2022/11/24 08:52:28;;;;;;;18.08;5.72;;;7.70;99.90;;;;;;5028958;28;20501;-78
2022/11/24 08:54:53;;;;;;;12.15;4.90;;;7.70;99.90;;;;;;5037765;28;20051;-78
2022/11/24 08:57:19;;;;;;;20.98;5.82;;;7.80;99.90;;;;;;5042145;28;20048;-77
2022/11/24 08:59:45;;;;;;;15.38;4.28;;;7.80;99.90;;;;;;5040611;28;20124;-78
2022/11/24 09:02:12;;;;;;;14.45;5.22;;;7.80;99.90;;;;;;4994453;28;20448;-78
2022/11/24 09:04:38;;;;;;;15.15;4.97;;;7.80;99.90;;;;;;5029107;28;20152;-77
2022/11/24 09:07:04;;;;;;;11.57;4.68;;;7.90;99.90;;;;;;5025571;28;20557;-78
2022/11/24 09:09:30;;;;;;;10.27;3.58;;;7.80;99.90;;;;;;5042496;28;20041;-79
2022/11/24 09:11:55;;;;;;;11.68;4.93;;;7.90;99.90;;;;;;5043194;28;20112;-78
2022/11/24 09:14:21;;;;;;;16.77;3.75;;;7.90;99.90;;;;;;5025178;28;20040;-76
2022/11/24 09:16:47;;;;;;;10.93;3.60;;;8.00;99.90;;;;;;5013992;28;20611;-77
2022/11/24 09:19:12;;;;;;;8.60;3.95;;;8.00;99.90;;;;;;5043793;28;20037;-78
2022/11/24 09:21:38;;;;;;;10.45;3.20;;;8.10;99.90;;;;;;5032677;28;20106;-79
2022/11/24 09:24:09;;;;;;;9.32;3.42;;;8.10;99.90;;;;;;5010399;28;20137;-77
2022/11/24 09:26:36;;;;;;;7.90;3.25;;;8.10;99.90;;;;;;5030987;28;20046;-76
2022/11/24 09:29:06;;;;;;;11.75;3.00;;;8.20;99.90;;;;;;5047259;28;20044;-78
2022/11/24 09:31:34;;;;;;;7.82;2.50;;;8.20;99.90;;;;;;5047187;28;20041;-78
2022/11/24 09:34:01;;;;;;;7.43;2.08;;;8.50;99.90;;;;;;5043802;28;20041;-77
2022/11/24 09:36:27;;;;;;;5.05;1.60;;;8.40;99.90;;;;;;5022428;28;20033;-78
2022/11/24 09:38:53;;;;;;;5.05;1.50;;;8.50;99.90;;;;;;5040958;28;20049;-78
2022/11/24 09:41:38;;;;;;;4.00;1.42;;;8.60;99.90;;;;;;5041855;28;20412;-77
2022/11/24 09:44:20;;;;;;;4.95;1.40;;;8.60;99.90;;;;;;5033872;28;20069;-79
2022/11/24 09:46:52;;;;;;;6.47;1.70;;;8.70;99.90;;;;;;5015567;28;20034;-79
2022/11/24 09:49:43;;;;;;;5.72;1.45;;;8.80;99.90;;;;;;5037221;28;20048;-80
2022/11/24 09:52:17;;;;;;;6.00;1.60;;;8.90;99.90;;;;;;4996131;28;20056;-79
2022/11/24 09:54:58;;;;;;;5.15;1.55;;;8.90;99.90;;;;;;5037102;28;20040;-78
2022/11/24 09:57:27;;;;;;;10.68;2.40;;;9.00;99.90;;;;;;5035620;28;20100;-79
2022/11/24 09:59:58;;;;;;;6.88;2.15;;;9.10;99.90;;;;;;5048530;28;20041;-78
2022/11/24 10:02:27;;;;;;;6.32;2.13;;;9.20;99.90;;;;;;5037726;28;20041;-78
2022/11/24 10:04:54;;;;;;;6.63;1.90;;;9.20;99.90;;;;;;5004910;28;20060;-80
2022/11/24 10:07:36;;;;;;;9.15;2.72;;;9.30;99.90;;;;;;5031224;28;20056;-80
2022/11/24 10:10:10;;;;;;;7.78;1.90;;;9.30;99.90;;;;;;5028695;28;20048;-79
2022/11/24 10:12:53;;;;;;;6.53;1.90;;;9.40;99.90;;;;;;5030055;28;20037;-78
2022/11/24 10:15:57;;;;;;;6.03;1.73;;;9.50;99.90;;;;;;5021858;28;20051;-80
2022/11/24 10:19:04;;;;;;;8.70;2.78;;;9.60;99.90;;;;;;5022890;28;20050;-79
2022/11/24 10:21:36;;;;;;;9.07;2.60;;;9.60;99.90;;;;;;5036680;28;20064;-81
2022/11/24 10:24:17;;;;;;;9.18;3.00;;;9.50;99.90;;;;;;5026161;28;20033;-80
2022/11/24 10:26:55;;;;;;;9.50;3.47;;;9.50;99.90;;;;;;5044347;28;20041;-80
2022/11/24 10:29:32;;;;;;;9.20;3.80;;;9.60;99.90;;;;;;5023611;28;20048;-79
2022/11/24 10:32:08;;;;;;;10.88;3.72;;;9.70;99.90;;;;;;5024334;28;20131;-79
2022/11/24 10:34:40;;;;;;;11.07;3.65;;;9.90;99.90;;;;;;5042573;28;20092;-80
2022/11/24 10:37:27;;;;;;;8.52;3.30;;;10.00;99.90;;;;;;5022120;28;20115;-79
2022/11/24 10:40:15;;;;;;;8.32;3.90;;;10.10;99.90;;;;;;5038535;28;20095;-79
2022/11/24 10:42:47;;;;;;;10.77;3.70;;;10.20;99.90;;;;;;5040419;28;20044;-79
2022/11/24 10:45:19;;;;;;;12.20;3.90;;;10.30;99.90;;;;;;5026662;28;20220;-80
2022/11/24 10:47:48;;;;;;;8.65;3.00;;;10.40;99.90;;;;;;5038230;28;20040;-80
2022/11/24 10:50:21;;;;;;;14.43;3.75;;;10.40;99.90;;;;;;5038406;28;20037;-78
2022/11/24 10:52:55;;;;;;;9.10;3.28;;;10.50;99.90;;;;;;5037077;28;20898;-80
2022/11/24 10:55:21;;;;;;;12.20;3.15;;;10.60;99.90;;;;;;5028876;28;20056;-79
2022/11/24 10:57:49;;;;;;;8.95;3.20;;;10.60;99.90;;;;;;5030768;28;20033;-79
2022/11/24 11:00:18;;;;;;;13.63;3.92;;;10.70;99.90;;;;;;5033798;28;20072;-79
2022/11/24 11:02:48;;;;;;;15.40;3.25;;;10.80;99.90;;;;;;5024640;28;20983;-81
2022/11/24 11:05:41;;;;;;;12.02;3.25;;;10.80;99.90;;;;;;5009571;28;20193;-80
2022/11/24 11:08:12;;;;;;;10.77;3.42;;;10.90;99.90;;;;;;5023622;28;20061;-78
2022/11/24 11:10:39;;;;;;;10.90;3.58;;;11.00;99.90;;;;;;5042846;28;20045;-83
2022/11/24 11:13:27;;;;;;;10.75;3.17;;;11.00;99.90;;;;;;5028672;28;20056;-81
2022/11/24 11:15:57;;;;;;;13.18;4.03;;;11.00;99.90;;;;;;5039138;28;20148;-80
2022/11/24 11:18:30;;;;;;;9.55;3.42;;;11.10;99.90;;;;;;5024136;28;20045;-81
2022/11/24 11:21:00;;;;;;;11.98;3.45;;;11.10;99.90;;;;;;5040905;28;20040;-79
2022/11/24 11:23:33;;;;;;;12.55;3.08;;;11.20;99.90;;;;;;5033611;28;20116;-79
2022/11/24 11:26:26;;;;;;;10.25;3.22;;;11.20;99.90;;;;;;5040170;28;20041;-79
2022/11/24 11:29:06;;;;;;;10.88;3.20;;;11.20;99.90;;;;;;5035327;28;20529;-76
2022/11/24 11:31:33;;;;;;;13.75;3.30;;;11.20;99.90;;;;;;5043092;28;20098;-78
2022/11/24 11:34:20;;;;;;;10.20;3.25;;;11.30;99.90;;;;;;5036719;28;20120;-79
2022/11/24 11:36:51;;;;;;;11.98;3.20;;;11.30;99.90;;;;;;5037726;28;20080;-80
2022/11/24 11:39:42;;;;;;;12.65;3.10;;;11.30;99.90;;;;;;5025038;28;20045;-79
2022/11/24 11:42:21;;;;;;;12.98;3.33;;;11.40;99.90;;;;;;5055637;28;20049;-78
2022/11/24 11:45:00;;;;;;;11.88;3.33;;;11.40;99.90;;;;;;5032484;28;20036;-80
2022/11/24 11:47:34;;;;;;;10.60;3.00;;;11.40;99.90;;;;;;5039649;28;20080;-78
2022/11/24 11:50:01;;;;;;;12.07;3.13;;;11.40;99.90;;;;;;5038989;28;20044;-78
2022/11/24 11:52:58;;;;;;;12.80;3.67;;;11.40;99.90;;;;;;5037993;28;20378;-82
2022/11/24 11:55:51;;;;;;;8.93;3.05;;;11.50;99.90;;;;;;5021788;28;20079;-80
2022/11/24 11:58:36;;;;;;;11.35;3.45;;;11.50;99.90;;;;;;5042563;28;20040;-81
2022/11/24 12:01:43;;;;;;;14.00;3.42;;;11.60;99.90;;;;;;5043053;28;20611;-78
2022/11/24 12:04:30;;;;;;;11.35;2.53;;;11.60;99.90;;;;;;4996606;28;20409;-79
2022/11/24 12:07:08;;;;;;;10.60;3.00;;;11.60;99.90;;;;;;5046647;28;20060;-76
2022/11/24 12:09:58;;;;;;;11.63;2.60;;;11.70;99.90;;;;;;5043759;28;20454;-79
2022/11/24 12:12:23;;;;;;;12.00;2.60;;;11.70;99.90;;;;;;5031447;28;20044;-79
2022/11/24 12:15:11;;;;;;;11.50;3.03;;;11.80;99.90;;;;;;5032937;28;20041;-79
2022/11/24 12:17:56;;;;;;;13.85;3.47;;;11.80;99.90;;;;;;5031293;28;20036;-79
2022/11/24 12:20:24;;;;;;;17.50;3.08;;;11.80;99.90;;;;;;5044356;28;20039;-76
2022/11/24 12:23:10;;;;;;;11.52;2.63;;;11.70;99.90;;;;;;5047304;28;20651;-82
2022/11/24 12:25:43;;;;;;;14.68;2.67;;;11.70;99.90;;;;;;5067435;28;20072;-78
2022/11/24 12:28:32;;;;;;;9.05;2.40;;;11.60;99.90;;;;;;5045330;28;20076;-78
2022/11/24 12:31:04;;;;;;;13.18;3.08;;;11.60;99.90;;;;;;5030660;28;20041;-81
2022/11/24 12:34:02;;;;;;;12.75;3.28;;;11.60;99.90;;;;;;5049026;28;20045;-79
2022/11/24 12:36:36;;;;;;;13.90;3.08;;;11.60;99.90;;;;;;5044207;28;20131;-78
2022/11/24 12:39:18;;;;;;;16.63;2.97;;;11.60;99.90;;;;;;5029484;28;20037;-79
2022/11/24 12:42:22;;;;;;;13.18;2.70;;;11.50;99.90;;;;;;5052994;28;20036;-78
2022/11/24 12:45:32;;;;;;;11.43;2.38;;;11.50;99.90;;;;;;4983774;28;20049;-79
2022/11/24 12:48:13;;;;;;;7.80;1.90;;;11.40;99.90;;;;;;5023993;28;20090;-78
2022/11/24 12:50:40;;;;;;;18.33;4.00;;;11.40;99.90;;;;;;5041083;28;20128;-78
2022/11/24 12:53:15;;;;;;;18.08;3.08;;;11.30;99.90;;;;;;5044433;28;20037;-79
2022/11/24 12:55:43;;;;;;;13.77;2.40;;;11.30;99.90;;;;;;5027535;28;20191;-79
2022/11/24 12:58:11;;;;;;;13.05;2.53;;;11.30;99.90;;;;;;5050547;28;20048;-79
2022/11/24 13:01:02;;;;;;;21.55;4.15;;;11.30;99.90;;;;;;5038502;28;20057;-76